sensor_id;sensor_type;location;lat;lon;timestamp;P1;durP1;ratioP1;P2;durP2;ratioP2
81180;SDS011;70650;51.408;7.132;2023-11-19T00:00:05;5.35;;;1.70;;
81180;SDS011;70650;51.408;7.132;2023-11-19T00:02:39;6.20;;;2.00;;
81180;SDS011;70650;51.408;7.132;2023-11-19T00:05:05;5.30;;;2.13;;
81180;SDS011;70650;51.408;7.132;2023-11-19T00:07:36;5.60;;;2.30;;
81180;SDS011;70650;51.408;7.132;2023-11-19T00:10:02;6.72;;;2.58;;
81180;SDS011;70650;51.408;7.132;2023-11-19T00:12:31;6.45;;;2.67;;
81180;SDS011;70650;51.408;7.132;2023-11-19T00:14:57;7.78;;;3.10;;
81180;SDS011;70650;51.408;7.132;2023-11-19T00:17:22;7.13;;;3.00;;
81180;SDS011;70650;51.408;7.132;2023-11-19T00:19:47;6.73;;;2.90;;
81180;SDS011;70650;51.408;7.132;2023-11-19T00:22:14;6.50;;;2.97;;
81180;SDS011;70650;51.408;7.132;2023-11-19T00:24:39;6.90;;;2.53;;
81180;SDS011;70650;51.408;7.132;2023-11-19T00:27:05;6.32;;;2.72;;
81180;SDS011;70650;51.408;7.132;2023-11-19T00:29:32;6.32;;;2.60;;
81180;SDS011;70650;51.408;7.132;2023-11-19T00:31:58;9.13;;;3.10;;
81180;SDS011;70650;51.408;7.132;2023-11-19T00:34:23;6.30;;;2.60;;
81180;SDS011;70650;51.408;7.132;2023-11-19T00:36:48;7.60;;;3.00;;
81180;SDS011;70650;51.408;7.132;2023-11-19T00:39:14;6.00;;;2.40;;
81180;SDS011;70650;51.408;7.132;2023-11-19T00:41:40;6.28;;;2.50;;
81180;SDS011;70650;51.408;7.132;2023-11-19T00:44:05;6.80;;;2.60;;
81180;SDS011;70650;51.408;7.132;2023-11-19T00:46:31;7.07;;;2.73;;
81180;SDS011;70650;51.408;7.132;2023-11-19T00:48:57;6.05;;;2.45;;
81180;SDS011;70650;51.408;7.132;2023-11-19T00:51:24;7.38;;;2.80;;
81180;SDS011;70650;51.408;7.132;2023-11-19T00:53:51;6.53;;;2.90;;
81180;SDS011;70650;51.408;7.132;2023-11-19T00:56:17;8.52;;;3.10;;
81180;SDS011;70650;51.408;7.132;2023-11-19T00:58:44;7.03;;;2.88;;
81180;SDS011;70650;51.408;7.132;2023-11-19T01:01:11;7.93;;;2.80;;
81180;SDS011;70650;51.408;7.132;2023-11-19T01:03:36;6.13;;;2.78;;
81180;SDS011;70650;51.408;7.132;2023-11-19T01:06:02;7.47;;;2.60;;
81180;SDS011;70650;51.408;7.132;2023-11-19T01:08:27;7.15;;;2.80;;
81180;SDS011;70650;51.408;7.132;2023-11-19T01:10:53;7.10;;;2.92;;
81180;SDS011;70650;51.408;7.132;2023-11-19T01:13:18;6.60;;;2.80;;
81180;SDS011;70650;51.408;7.132;2023-11-19T01:15:43;6.27;;;2.67;;
81180;SDS011;70650;51.408;7.132;2023-11-19T01:18:09;5.80;;;2.30;;
81180;SDS011;70650;51.408;7.132;2023-11-19T01:20:34;6.27;;;2.40;;
81180;SDS011;70650;51.408;7.132;2023-11-19T01:23:00;5.57;;;1.92;;
81180;SDS011;70650;51.408;7.132;2023-11-19T01:25:25;5.15;;;2.05;;
81180;SDS011;70650;51.408;7.132;2023-11-19T01:27:50;3.93;;;1.70;;
81180;SDS011;70650;51.408;7.132;2023-11-19T01:30:16;3.97;;;1.60;;
81180;SDS011;70650;51.408;7.132;2023-11-19T01:32:41;2.47;;;1.00;;
81180;SDS011;70650;51.408;7.132;2023-11-19T01:35:07;2.38;;;0.93;;
81180;SDS011;70650;51.408;7.132;2023-11-19T01:37:33;4.35;;;1.17;;
81180;SDS011;70650;51.408;7.132;2023-11-19T01:39:59;3.22;;;1.20;;
81180;SDS011;70650;51.408;7.132;2023-11-19T01:42:25;3.30;;;1.17;;
81180;SDS011;70650;51.408;7.132;2023-11-19T01:44:58;4.68;;;1.80;;
81180;SDS011;70650;51.408;7.132;2023-11-19T01:47:25;5.03;;;1.63;;
81180;SDS011;70650;51.408;7.132;2023-11-19T01:49:51;4.70;;;1.40;;
81180;SDS011;70650;51.408;7.132;2023-11-19T01:52:17;5.50;;;1.80;;
81180;SDS011;70650;51.408;7.132;2023-11-19T01:54:45;4.38;;;1.60;;
81180;SDS011;70650;51.408;7.132;2023-11-19T01:57:10;5.97;;;1.80;;
81180;SDS011;70650;51.408;7.132;2023-11-19T01:59:36;5.07;;;1.55;;
81180;SDS011;70650;51.408;7.132;2023-11-19T02:02:03;6.00;;;2.00;;
81180;SDS011;70650;51.408;7.132;2023-11-19T02:04:30;4.18;;;1.33;;
81180;SDS011;70650;51.408;7.132;2023-11-19T02:06:56;4.53;;;1.70;;
81180;SDS011;70650;51.408;7.132;2023-11-19T02:09:23;5.05;;;1.70;;
81180;SDS011;70650;51.408;7.132;2023-11-19T02:11:48;6.32;;;1.98;;
81180;SDS011;70650;51.408;7.132;2023-11-19T02:14:16;4.38;;;1.67;;
81180;SDS011;70650;51.408;7.132;2023-11-19T02:16:43;5.35;;;1.60;;
81180;SDS011;70650;51.408;7.132;2023-11-19T02:19:09;6.25;;;1.70;;
81180;SDS011;70650;51.408;7.132;2023-11-19T02:21:36;6.25;;;1.70;;
81180;SDS011;70650;51.408;7.132;2023-11-19T02:24:06;6.25;;;1.77;;
81180;SDS011;70650;51.408;7.132;2023-11-19T02:26:39;7.38;;;1.40;;
81180;SDS011;70650;51.408;7.132;2023-11-19T02:29:12;6.70;;;1.45;;
81180;SDS011;70650;51.408;7.132;2023-11-19T02:31:38;6.13;;;1.20;;
81180;SDS011;70650;51.408;7.132;2023-11-19T02:34:03;5.30;;;1.10;;
81180;SDS011;70650;51.408;7.132;2023-11-19T02:36:28;8.03;;;1.37;;
81180;SDS011;70650;51.408;7.132;2023-11-19T02:38:54;3.75;;;1.00;;
81180;SDS011;70650;51.408;7.132;2023-11-19T02:41:20;5.93;;;1.20;;
81180;SDS011;70650;51.408;7.132;2023-11-19T02:43:45;6.07;;;1.47;;
81180;SDS011;70650;51.408;7.132;2023-11-19T02:46:13;4.85;;;1.38;;
81180;SDS011;70650;51.408;7.132;2023-11-19T02:48:39;6.88;;;1.20;;
81180;SDS011;70650;51.408;7.132;2023-11-19T02:51:04;5.85;;;1.02;;
81180;SDS011;70650;51.408;7.132;2023-11-19T02:53:34;6.45;;;1.40;;
81180;SDS011;70650;51.408;7.132;2023-11-19T02:55:59;12.23;;;1.75;;
81180;SDS011;70650;51.408;7.132;2023-11-19T02:58:36;6.18;;;1.20;;
81180;SDS011;70650;51.408;7.132;2023-11-19T03:01:02;7.15;;;1.77;;
81180;SDS011;70650;51.408;7.132;2023-11-19T03:03:37;6.15;;;1.23;;
81180;SDS011;70650;51.408;7.132;2023-11-19T03:06:05;6.00;;;1.35;;
81180;SDS011;70650;51.408;7.132;2023-11-19T03:08:31;5.18;;;1.40;;
81180;SDS011;70650;51.408;7.132;2023-11-19T03:10:58;7.10;;;1.48;;
81180;SDS011;70650;51.408;7.132;2023-11-19T03:13:24;7.68;;;1.60;;
81180;SDS011;70650;51.408;7.132;2023-11-19T03:15:49;9.18;;;2.03;;
81180;SDS011;70650;51.408;7.132;2023-11-19T03:18:14;9.90;;;1.88;;
81180;SDS011;70650;51.408;7.132;2023-11-19T03:20:40;8.98;;;1.60;;
81180;SDS011;70650;51.408;7.132;2023-11-19T03:23:05;10.13;;;2.10;;
81180;SDS011;70650;51.408;7.132;2023-11-19T03:25:31;10.55;;;2.25;;
81180;SDS011;70650;51.408;7.132;2023-11-19T03:30:28;7.90;;;1.60;;
81180;SDS011;70650;51.408;7.132;2023-11-19T03:32:57;7.68;;;1.63;;
81180;SDS011;70650;51.408;7.132;2023-11-19T03:35:23;13.50;;;2.35;;
81180;SDS011;70650;51.408;7.132;2023-11-19T03:37:49;10.65;;;1.50;;
81180;SDS011;70650;51.408;7.132;2023-11-19T03:40:15;11.32;;;2.28;;
81180;SDS011;70650;51.408;7.132;2023-11-19T03:42:41;5.35;;;1.60;;
81180;SDS011;70650;51.408;7.132;2023-11-19T03:45:06;6.03;;;1.70;;
81180;SDS011;70650;51.408;7.132;2023-11-19T03:47:34;6.43;;;1.65;;
81180;SDS011;70650;51.408;7.132;2023-11-19T03:49:59;10.82;;;2.25;;
81180;SDS011;70650;51.408;7.132;2023-11-19T03:52:25;10.25;;;1.50;;
81180;SDS011;70650;51.408;7.132;2023-11-19T03:54:52;7.57;;;1.83;;
81180;SDS011;70650;51.408;7.132;2023-11-19T03:57:17;7.93;;;1.83;;
81180;SDS011;70650;51.408;7.132;2023-11-19T03:59:43;12.55;;;1.92;;
81180;SDS011;70650;51.408;7.132;2023-11-19T04:02:09;6.65;;;1.42;;
81180;SDS011;70650;51.408;7.132;2023-11-19T04:04:35;9.02;;;1.60;;
81180;SDS011;70650;51.408;7.132;2023-11-19T04:07:00;13.65;;;2.00;;
81180;SDS011;70650;51.408;7.132;2023-11-19T04:09:27;11.38;;;2.00;;
81180;SDS011;70650;51.408;7.132;2023-11-19T04:11:53;11.40;;;1.85;;
81180;SDS011;70650;51.408;7.132;2023-11-19T04:14:18;6.00;;;1.67;;
81180;SDS011;70650;51.408;7.132;2023-11-19T04:16:44;17.77;;;2.17;;
81180;SDS011;70650;51.408;7.132;2023-11-19T04:19:10;9.63;;;1.63;;
81180;SDS011;70650;51.408;7.132;2023-11-19T04:21:36;8.27;;;1.60;;
81180;SDS011;70650;51.408;7.132;2023-11-19T04:24:01;9.45;;;2.08;;
81180;SDS011;70650;51.408;7.132;2023-11-19T04:26:26;11.02;;;1.90;;
81180;SDS011;70650;51.408;7.132;2023-11-19T04:28:52;9.82;;;1.67;;
81180;SDS011;70650;51.408;7.132;2023-11-19T04:31:17;8.77;;;1.50;;
81180;SDS011;70650;51.408;7.132;2023-11-19T04:33:43;10.35;;;1.80;;
81180;SDS011;70650;51.408;7.132;2023-11-19T04:36:09;12.02;;;1.45;;
81180;SDS011;70650;51.408;7.132;2023-11-19T04:38:39;11.38;;;1.80;;
81180;SDS011;70650;51.408;7.132;2023-11-19T04:41:05;11.65;;;2.13;;
81180;SDS011;70650;51.408;7.132;2023-11-19T04:43:31;12.25;;;1.70;;
81180;SDS011;70650;51.408;7.132;2023-11-19T04:45:57;11.52;;;2.17;;
81180;SDS011;70650;51.408;7.132;2023-11-19T04:48:23;13.38;;;2.33;;
81180;SDS011;70650;51.408;7.132;2023-11-19T04:50:49;9.88;;;1.90;;
81180;SDS011;70650;51.408;7.132;2023-11-19T04:53:15;12.98;;;2.42;;
81180;SDS011;70650;51.408;7.132;2023-11-19T04:55:41;15.37;;;2.63;;
81180;SDS011;70650;51.408;7.132;2023-11-19T04:58:06;8.45;;;1.60;;
81180;SDS011;70650;51.408;7.132;2023-11-19T05:00:32;16.98;;;1.90;;
81180;SDS011;70650;51.408;7.132;2023-11-19T05:02:58;15.98;;;2.53;;
81180;SDS011;70650;51.408;7.132;2023-11-19T05:05:23;15.10;;;2.00;;
81180;SDS011;70650;51.408;7.132;2023-11-19T05:07:48;14.07;;;3.10;;
81180;SDS011;70650;51.408;7.132;2023-11-19T05:10:14;13.37;;;1.97;;
81180;SDS011;70650;51.408;7.132;2023-11-19T05:12:39;12.23;;;2.25;;
81180;SDS011;70650;51.408;7.132;2023-11-19T05:15:04;14.60;;;2.30;;
81180;SDS011;70650;51.408;7.132;2023-11-19T05:17:30;11.63;;;1.80;;
81180;SDS011;70650;51.408;7.132;2023-11-19T05:19:56;8.90;;;1.70;;
81180;SDS011;70650;51.408;7.132;2023-11-19T05:22:21;12.67;;;2.37;;
81180;SDS011;70650;51.408;7.132;2023-11-19T05:24:47;10.45;;;2.03;;
81180;SDS011;70650;51.408;7.132;2023-11-19T05:27:13;17.20;;;2.10;;
81180;SDS011;70650;51.408;7.132;2023-11-19T05:29:39;14.07;;;2.10;;
81180;SDS011;70650;51.408;7.132;2023-11-19T05:32:06;13.52;;;2.38;;
81180;SDS011;70650;51.408;7.132;2023-11-19T05:34:32;12.90;;;2.30;;
81180;SDS011;70650;51.408;7.132;2023-11-19T05:36:57;12.70;;;2.00;;
81180;SDS011;70650;51.408;7.132;2023-11-19T05:39:22;13.90;;;2.40;;
81180;SDS011;70650;51.408;7.132;2023-11-19T05:41:49;11.38;;;2.25;;
81180;SDS011;70650;51.408;7.132;2023-11-19T05:44:14;17.27;;;2.97;;
81180;SDS011;70650;51.408;7.132;2023-11-19T05:46:39;16.37;;;2.57;;
81180;SDS011;70650;51.408;7.132;2023-11-19T05:49:08;12.65;;;2.30;;
81180;SDS011;70650;51.408;7.132;2023-11-19T05:51:36;11.85;;;2.40;;
81180;SDS011;70650;51.408;7.132;2023-11-19T05:54:03;14.77;;;2.42;;
81180;SDS011;70650;51.408;7.132;2023-11-19T05:56:29;16.15;;;2.33;;
81180;SDS011;70650;51.408;7.132;2023-11-19T05:58:57;16.70;;;2.60;;
81180;SDS011;70650;51.408;7.132;2023-11-19T06:01:24;15.20;;;1.80;;
81180;SDS011;70650;51.408;7.132;2023-11-19T06:03:49;10.50;;;2.30;;
81180;SDS011;70650;51.408;7.132;2023-11-19T06:06:15;12.75;;;2.28;;
81180;SDS011;70650;51.408;7.132;2023-11-19T06:08:40;15.65;;;2.08;;
81180;SDS011;70650;51.408;7.132;2023-11-19T06:11:05;11.43;;;2.45;;
81180;SDS011;70650;51.408;7.132;2023-11-19T06:13:31;15.98;;;1.92;;
81180;SDS011;70650;51.408;7.132;2023-11-19T06:15:56;11.63;;;2.40;;
81180;SDS011;70650;51.408;7.132;2023-11-19T06:18:21;14.20;;;2.80;;
81180;SDS011;70650;51.408;7.132;2023-11-19T06:20:48;9.32;;;1.80;;
81180;SDS011;70650;51.408;7.132;2023-11-19T06:23:14;8.75;;;1.60;;
81180;SDS011;70650;51.408;7.132;2023-11-19T06:25:40;16.98;;;2.45;;
81180;SDS011;70650;51.408;7.132;2023-11-19T06:28:05;12.65;;;1.90;;
81180;SDS011;70650;51.408;7.132;2023-11-19T06:30:31;10.77;;;2.22;;
81180;SDS011;70650;51.408;7.132;2023-11-19T06:32:57;11.52;;;1.50;;
81180;SDS011;70650;51.408;7.132;2023-11-19T06:35:23;14.18;;;2.10;;
81180;SDS011;70650;51.408;7.132;2023-11-19T06:37:51;17.88;;;2.85;;
81180;SDS011;70650;51.408;7.132;2023-11-19T06:40:17;13.63;;;2.53;;
81180;SDS011;70650;51.408;7.132;2023-11-19T06:42:42;14.73;;;2.40;;
81180;SDS011;70650;51.408;7.132;2023-11-19T06:45:08;9.57;;;1.80;;
81180;SDS011;70650;51.408;7.132;2023-11-19T06:47:34;13.20;;;2.17;;
81180;SDS011;70650;51.408;7.132;2023-11-19T06:49:59;11.65;;;1.85;;
81180;SDS011;70650;51.408;7.132;2023-11-19T06:52:25;11.65;;;1.70;;
81180;SDS011;70650;51.408;7.132;2023-11-19T06:54:50;13.50;;;2.38;;
81180;SDS011;70650;51.408;7.132;2023-11-19T06:57:16;10.63;;;2.00;;
81180;SDS011;70650;51.408;7.132;2023-11-19T06:59:41;19.85;;;2.55;;
81180;SDS011;70650;51.408;7.132;2023-11-19T07:02:07;11.13;;;1.63;;
81180;SDS011;70650;51.408;7.132;2023-11-19T07:04:32;13.35;;;2.25;;
81180;SDS011;70650;51.408;7.132;2023-11-19T07:07:00;14.85;;;2.70;;
81180;SDS011;70650;51.408;7.132;2023-11-19T07:09:26;10.63;;;1.55;;
81180;SDS011;70650;51.408;7.132;2023-11-19T07:11:51;14.75;;;2.28;;
81180;SDS011;70650;51.408;7.132;2023-11-19T07:14:17;13.90;;;2.15;;
81180;SDS011;70650;51.408;7.132;2023-11-19T07:16:43;12.65;;;1.90;;
81180;SDS011;70650;51.408;7.132;2023-11-19T07:19:09;13.55;;;1.90;;
81180;SDS011;70650;51.408;7.132;2023-11-19T07:21:35;15.75;;;2.10;;
81180;SDS011;70650;51.408;7.132;2023-11-19T07:24:04;10.48;;;1.80;;
81180;SDS011;70650;51.408;7.132;2023-11-19T07:26:30;10.95;;;1.90;;
81180;SDS011;70650;51.408;7.132;2023-11-19T07:28:55;15.75;;;2.10;;
81180;SDS011;70650;51.408;7.132;2023-11-19T07:31:21;14.90;;;2.45;;
81180;SDS011;70650;51.408;7.132;2023-11-19T07:33:46;14.05;;;1.75;;
81180;SDS011;70650;51.408;7.132;2023-11-19T07:36:12;11.82;;;1.80;;
81180;SDS011;70650;51.408;7.132;2023-11-19T07:38:38;13.05;;;2.33;;
81180;SDS011;70650;51.408;7.132;2023-11-19T07:41:04;12.82;;;1.85;;
81180;SDS011;70650;51.408;7.132;2023-11-19T07:43:31;13.68;;;2.33;;
81180;SDS011;70650;51.408;7.132;2023-11-19T07:45:57;12.45;;;2.20;;
81180;SDS011;70650;51.408;7.132;2023-11-19T07:48:24;15.23;;;2.75;;
81180;SDS011;70650;51.408;7.132;2023-11-19T07:50:50;14.55;;;1.98;;
81180;SDS011;70650;51.408;7.132;2023-11-19T07:53:18;10.90;;;1.75;;
81180;SDS011;70650;51.408;7.132;2023-11-19T07:55:44;11.75;;;1.80;;
81180;SDS011;70650;51.408;7.132;2023-11-19T07:58:10;12.55;;;1.90;;
81180;SDS011;70650;51.408;7.132;2023-11-19T08:00:36;10.52;;;1.92;;
81180;SDS011;70650;51.408;7.132;2023-11-19T08:03:02;16.75;;;1.65;;
81180;SDS011;70650;51.408;7.132;2023-11-19T08:05:29;16.73;;;1.83;;
81180;SDS011;70650;51.408;7.132;2023-11-19T08:07:54;13.50;;;2.03;;
81180;SDS011;70650;51.408;7.132;2023-11-19T08:10:20;18.43;;;2.53;;
81180;SDS011;70650;51.408;7.132;2023-11-19T08:12:45;16.37;;;1.87;;
81180;SDS011;70650;51.408;7.132;2023-11-19T08:15:11;14.13;;;1.47;;
81180;SDS011;70650;51.408;7.132;2023-11-19T08:17:36;13.32;;;1.90;;
81180;SDS011;70650;51.408;7.132;2023-11-19T08:20:02;14.80;;;2.80;;
81180;SDS011;70650;51.408;7.132;2023-11-19T08:22:29;14.82;;;2.03;;
81180;SDS011;70650;51.408;7.132;2023-11-19T08:24:55;15.43;;;2.17;;
81180;SDS011;70650;51.408;7.132;2023-11-19T08:27:20;17.87;;;2.77;;
81180;SDS011;70650;51.408;7.132;2023-11-19T08:29:51;14.43;;;2.53;;
81180;SDS011;70650;51.408;7.132;2023-11-19T08:32:26;15.20;;;2.20;;
81180;SDS011;70650;51.408;7.132;2023-11-19T08:34:52;12.43;;;2.10;;
81180;SDS011;70650;51.408;7.132;2023-11-19T08:37:18;10.68;;;2.20;;
81180;SDS011;70650;51.408;7.132;2023-11-19T08:39:48;8.40;;;1.65;;
81180;SDS011;70650;51.408;7.132;2023-11-19T08:42:15;12.68;;;2.53;;
81180;SDS011;70650;51.408;7.132;2023-11-19T08:44:41;18.05;;;2.28;;
81180;SDS011;70650;51.408;7.132;2023-11-19T08:47:08;15.55;;;2.88;;
81180;SDS011;70650;51.408;7.132;2023-11-19T08:49:34;17.08;;;2.60;;
81180;SDS011;70650;51.408;7.132;2023-11-19T08:52:00;13.63;;;2.65;;
81180;SDS011;70650;51.408;7.132;2023-11-19T08:54:25;16.67;;;2.47;;
81180;SDS011;70650;51.408;7.132;2023-11-19T08:56:50;12.40;;;2.03;;
81180;SDS011;70650;51.408;7.132;2023-11-19T08:59:16;15.27;;;2.23;;
81180;SDS011;70650;51.408;7.132;2023-11-19T09:01:41;13.02;;;2.00;;
81180;SDS011;70650;51.408;7.132;2023-11-19T09:04:07;14.77;;;1.97;;
81180;SDS011;70650;51.408;7.132;2023-11-19T09:06:32;14.97;;;2.60;;
81180;SDS011;70650;51.408;7.132;2023-11-19T09:08:58;14.60;;;2.10;;
81180;SDS011;70650;51.408;7.132;2023-11-19T09:11:27;15.82;;;3.15;;
81180;SDS011;70650;51.408;7.132;2023-11-19T09:13:52;15.82;;;2.35;;
81180;SDS011;70650;51.408;7.132;2023-11-19T09:16:18;11.73;;;2.05;;
81180;SDS011;70650;51.408;7.132;2023-11-19T09:18:43;16.95;;;2.13;;
81180;SDS011;70650;51.408;7.132;2023-11-19T09:21:12;16.27;;;2.63;;
81180;SDS011;70650;51.408;7.132;2023-11-19T09:23:37;16.05;;;2.40;;
81180;SDS011;70650;51.408;7.132;2023-11-19T09:26:06;13.10;;;2.45;;
81180;SDS011;70650;51.408;7.132;2023-11-19T09:28:33;13.10;;;1.90;;
81180;SDS011;70650;51.408;7.132;2023-11-19T09:30:59;16.03;;;2.40;;
81180;SDS011;70650;51.408;7.132;2023-11-19T09:33:24;11.55;;;1.80;;
81180;SDS011;70650;51.408;7.132;2023-11-19T09:35:50;16.50;;;2.50;;
81180;SDS011;70650;51.408;7.132;2023-11-19T09:38:15;14.25;;;1.77;;
81180;SDS011;70650;51.408;7.132;2023-11-19T09:40:41;17.70;;;2.53;;
81180;SDS011;70650;51.408;7.132;2023-11-19T09:43:07;16.48;;;3.17;;
81180;SDS011;70650;51.408;7.132;2023-11-19T09:46:09;13.85;;;2.50;;
81180;SDS011;70650;51.408;7.132;2023-11-19T09:48:32;13.55;;;1.95;;
81180;SDS011;70650;51.408;7.132;2023-11-19T09:50:58;16.55;;;2.97;;
81180;SDS011;70650;51.408;7.132;2023-11-19T09:53:24;18.77;;;2.53;;
81180;SDS011;70650;51.408;7.132;2023-11-19T09:55:49;14.25;;;2.15;;
81180;SDS011;70650;51.408;7.132;2023-11-19T09:58:16;17.92;;;2.83;;
81180;SDS011;70650;51.408;7.132;2023-11-19T10:00:42;15.52;;;2.25;;
81180;SDS011;70650;51.408;7.132;2023-11-19T10:03:08;13.88;;;2.00;;
81180;SDS011;70650;51.408;7.132;2023-11-19T10:05:37;13.25;;;2.08;;
81180;SDS011;70650;51.408;7.132;2023-11-19T10:08:03;13.07;;;2.40;;
81180;SDS011;70650;51.408;7.132;2023-11-19T10:10:30;14.00;;;2.20;;
81180;SDS011;70650;51.408;7.132;2023-11-19T10:12:55;14.73;;;2.67;;
81180;SDS011;70650;51.408;7.132;2023-11-19T10:15:21;20.57;;;2.80;;
81180;SDS011;70650;51.408;7.132;2023-11-19T10:17:47;13.35;;;2.25;;
81180;SDS011;70650;51.408;7.132;2023-11-19T10:20:13;12.52;;;2.10;;
81180;SDS011;70650;51.408;7.132;2023-11-19T10:22:38;12.60;;;2.72;;
81180;SDS011;70650;51.408;7.132;2023-11-19T10:25:26;11.90;;;2.67;;
81180;SDS011;70650;51.408;7.132;2023-11-19T10:27:51;20.67;;;2.75;;
81180;SDS011;70650;51.408;7.132;2023-11-19T10:30:22;11.35;;;1.92;;
81180;SDS011;70650;51.408;7.132;2023-11-19T10:33:03;15.98;;;2.38;;
81180;SDS011;70650;51.408;7.132;2023-11-19T10:35:31;14.30;;;2.22;;
81180;SDS011;70650;51.408;7.132;2023-11-19T10:38:00;16.98;;;2.42;;
81180;SDS011;70650;51.408;7.132;2023-11-19T10:40:39;16.67;;;2.55;;
81180;SDS011;70650;51.408;7.132;2023-11-19T10:43:08;14.05;;;2.50;;
81180;SDS011;70650;51.408;7.132;2023-11-19T10:45:37;15.18;;;2.60;;
81180;SDS011;70650;51.408;7.132;2023-11-19T10:48:03;18.20;;;2.35;;
81180;SDS011;70650;51.408;7.132;2023-11-19T10:50:32;15.48;;;2.08;;
81180;SDS011;70650;51.408;7.132;2023-11-19T10:53:09;13.80;;;2.30;;
81180;SDS011;70650;51.408;7.132;2023-11-19T10:55:41;12.35;;;2.05;;
81180;SDS011;70650;51.408;7.132;2023-11-19T10:58:08;16.30;;;2.60;;
81180;SDS011;70650;51.408;7.132;2023-11-19T11:00:39;17.27;;;2.45;;
81180;SDS011;70650;51.408;7.132;2023-11-19T11:05:48;13.40;;;2.20;;
81180;SDS011;70650;51.408;7.132;2023-11-19T11:08:14;14.85;;;2.95;;
81180;SDS011;70650;51.408;7.132;2023-11-19T11:10:42;11.90;;;2.15;;
81180;SDS011;70650;51.408;7.132;2023-11-19T11:13:09;17.33;;;2.70;;
81180;SDS011;70650;51.408;7.132;2023-11-19T11:15:37;14.07;;;2.03;;
81180;SDS011;70650;51.408;7.132;2023-11-19T11:18:02;10.80;;;1.83;;
81180;SDS011;70650;51.408;7.132;2023-11-19T11:20:29;14.27;;;2.20;;
81180;SDS011;70650;51.408;7.132;2023-11-19T11:25:40;13.48;;;2.40;;
81180;SDS011;70650;51.408;7.132;2023-11-19T11:28:29;16.80;;;2.03;;
81180;SDS011;70650;51.408;7.132;2023-11-19T11:31:29;11.63;;;2.17;;
81180;SDS011;70650;51.408;7.132;2023-11-19T11:34:05;14.30;;;1.98;;
81180;SDS011;70650;51.408;7.132;2023-11-19T11:36:43;12.00;;;2.63;;
81180;SDS011;70650;51.408;7.132;2023-11-19T11:39:20;14.52;;;2.10;;
81180;SDS011;70650;51.408;7.132;2023-11-19T11:41:48;12.75;;;2.08;;
81180;SDS011;70650;51.408;7.132;2023-11-19T11:45:01;14.65;;;2.05;;
81180;SDS011;70650;51.408;7.132;2023-11-19T11:50:14;18.98;;;3.53;;
81180;SDS011;70650;51.408;7.132;2023-11-19T11:55:24;11.52;;;1.90;;
81180;SDS011;70650;51.408;7.132;2023-11-19T11:57:54;12.98;;;1.90;;
81180;SDS011;70650;51.408;7.132;2023-11-19T12:00:22;15.40;;;2.08;;
81180;SDS011;70650;51.408;7.132;2023-11-19T12:02:52;14.13;;;2.15;;
81180;SDS011;70650;51.408;7.132;2023-11-19T12:05:20;12.48;;;1.95;;
81180;SDS011;70650;51.408;7.132;2023-11-19T12:08:07;14.40;;;2.03;;
81180;SDS011;70650;51.408;7.132;2023-11-19T12:13:12;14.07;;;3.60;;
81180;SDS011;70650;51.408;7.132;2023-11-19T12:16:11;11.90;;;1.63;;
81180;SDS011;70650;51.408;7.132;2023-11-19T12:18:30;9.77;;;1.58;;
81180;SDS011;70650;51.408;7.132;2023-11-19T12:20:57;12.23;;;1.73;;
81180;SDS011;70650;51.408;7.132;2023-11-19T12:23:44;10.43;;;1.42;;
81180;SDS011;70650;51.408;7.132;2023-11-19T12:26:20;14.98;;;2.70;;
81180;SDS011;70650;51.408;7.132;2023-11-19T12:28:57;14.38;;;2.17;;
81180;SDS011;70650;51.408;7.132;2023-11-19T12:31:23;11.57;;;1.77;;
81180;SDS011;70650;51.408;7.132;2023-11-19T12:33:50;11.50;;;2.05;;
81180;SDS011;70650;51.408;7.132;2023-11-19T12:36:16;13.02;;;1.80;;
81180;SDS011;70650;51.408;7.132;2023-11-19T12:38:42;13.75;;;2.15;;
81180;SDS011;70650;51.408;7.132;2023-11-19T12:41:10;16.27;;;1.92;;
81180;SDS011;70650;51.408;7.132;2023-11-19T12:43:37;12.73;;;1.73;;
81180;SDS011;70650;51.408;7.132;2023-11-19T12:46:03;16.23;;;1.83;;
81180;SDS011;70650;51.408;7.132;2023-11-19T12:48:42;11.95;;;1.90;;
81180;SDS011;70650;51.408;7.132;2023-11-19T12:51:07;11.93;;;1.70;;
81180;SDS011;70650;51.408;7.132;2023-11-19T12:53:46;12.30;;;1.60;;
81180;SDS011;70650;51.408;7.132;2023-11-19T12:56:13;11.57;;;1.63;;
81180;SDS011;70650;51.408;7.132;2023-11-19T12:58:39;10.57;;;1.88;;
81180;SDS011;70650;51.408;7.132;2023-11-19T13:01:06;15.18;;;1.77;;
81180;SDS011;70650;51.408;7.132;2023-11-19T13:03:32;10.88;;;1.75;;
81180;SDS011;70650;51.408;7.132;2023-11-19T13:06:06;10.20;;;2.00;;
81180;SDS011;70650;51.408;7.132;2023-11-19T13:08:42;13.15;;;1.83;;
81180;SDS011;70650;51.408;7.132;2023-11-19T13:11:09;10.95;;;1.70;;
81180;SDS011;70650;51.408;7.132;2023-11-19T13:13:55;12.35;;;1.70;;
81180;SDS011;70650;51.408;7.132;2023-11-19T13:16:29;9.90;;;1.58;;
81180;SDS011;70650;51.408;7.132;2023-11-19T13:18:54;11.93;;;1.60;;
81180;SDS011;70650;51.408;7.132;2023-11-19T13:21:20;8.63;;;1.20;;
81180;SDS011;70650;51.408;7.132;2023-11-19T13:23:45;8.03;;;1.80;;
81180;SDS011;70650;51.408;7.132;2023-11-19T13:26:11;9.17;;;1.10;;
81180;SDS011;70650;51.408;7.132;2023-11-19T13:28:37;7.40;;;1.15;;
81180;SDS011;70650;51.408;7.132;2023-11-19T13:31:02;8.15;;;1.30;;
81180;SDS011;70650;51.408;7.132;2023-11-19T13:33:28;11.38;;;1.60;;
81180;SDS011;70650;51.408;7.132;2023-11-19T13:35:54;13.65;;;1.70;;
81180;SDS011;70650;51.408;7.132;2023-11-19T13:38:20;7.10;;;1.50;;
81180;SDS011;70650;51.408;7.132;2023-11-19T13:40:45;17.02;;;1.80;;
81180;SDS011;70650;51.408;7.132;2023-11-19T13:43:10;11.53;;;1.70;;
81180;SDS011;70650;51.408;7.132;2023-11-19T13:45:36;15.82;;;2.03;;
81180;SDS011;70650;51.408;7.132;2023-11-19T13:48:02;10.50;;;1.77;;
81180;SDS011;70650;51.408;7.132;2023-11-19T13:50:28;14.95;;;2.45;;
81180;SDS011;70650;51.408;7.132;2023-11-19T13:52:54;14.85;;;2.30;;
81180;SDS011;70650;51.408;7.132;2023-11-19T13:55:19;11.10;;;1.98;;
81180;SDS011;70650;51.408;7.132;2023-11-19T13:57:45;13.90;;;2.30;;
81180;SDS011;70650;51.408;7.132;2023-11-19T14:00:11;11.15;;;1.88;;
81180;SDS011;70650;51.408;7.132;2023-11-19T14:02:44;7.93;;;1.60;;
81180;SDS011;70650;51.408;7.132;2023-11-19T14:05:11;11.15;;;2.00;;
81180;SDS011;70650;51.408;7.132;2023-11-19T14:07:38;11.30;;;2.10;;
81180;SDS011;70650;51.408;7.132;2023-11-19T14:10:04;13.07;;;2.60;;
81180;SDS011;70650;51.408;7.132;2023-11-19T14:12:36;9.52;;;1.65;;
81180;SDS011;70650;51.408;7.132;2023-11-19T14:15:03;10.10;;;2.08;;
81180;SDS011;70650;51.408;7.132;2023-11-19T14:17:31;14.70;;;1.73;;
81180;SDS011;70650;51.408;7.132;2023-11-19T14:19:56;8.87;;;1.50;;
81180;SDS011;70650;51.408;7.132;2023-11-19T14:22:21;14.00;;;2.13;;
81180;SDS011;70650;51.408;7.132;2023-11-19T14:24:47;10.80;;;1.60;;
81180;SDS011;70650;51.408;7.132;2023-11-19T14:27:12;8.57;;;1.55;;
81180;SDS011;70650;51.408;7.132;2023-11-19T14:29:38;15.60;;;2.63;;
81180;SDS011;70650;51.408;7.132;2023-11-19T14:32:04;8.93;;;1.67;;
81180;SDS011;70650;51.408;7.132;2023-11-19T14:34:30;14.07;;;2.05;;
81180;SDS011;70650;51.408;7.132;2023-11-19T14:36:56;8.82;;;1.50;;
81180;SDS011;70650;51.408;7.132;2023-11-19T14:39:21;14.10;;;1.55;;
81180;SDS011;70650;51.408;7.132;2023-11-19T14:41:47;15.55;;;2.63;;
81180;SDS011;70650;51.408;7.132;2023-11-19T14:44:12;12.60;;;2.20;;
81180;SDS011;70650;51.408;7.132;2023-11-19T14:46:37;11.10;;;2.00;;
81180;SDS011;70650;51.408;7.132;2023-11-19T14:49:03;12.18;;;2.72;;
81180;SDS011;70650;51.408;7.132;2023-11-19T14:51:35;12.90;;;2.00;;
81180;SDS011;70650;51.408;7.132;2023-11-19T14:54:00;12.15;;;1.90;;